createdAt,value
2023-04-02T00:01:48.463Z,5.10
2023-04-02T00:04:26.379Z,5.20
2023-04-02T00:06:57.025Z,5.10
2023-04-02T00:09:30.558Z,5.10
2023-04-02T00:12:00.363Z,5.10
2023-04-02T00:14:33.345Z,5.10
2023-04-02T00:17:03.865Z,5.10
2023-04-02T00:19:36.143Z,5.10
2023-04-02T00:22:06.602Z,5.10
2023-04-02T00:24:35.580Z,5.20
2023-04-02T00:27:04.533Z,5.10
2023-04-02T00:29:34.745Z,5.10
2023-04-02T00:32:03.208Z,5.20
2023-04-02T00:34:34.722Z,5.20
2023-04-02T00:37:03.230Z,5.20
2023-04-02T00:39:39.115Z,5.20
2023-04-02T00:42:07.885Z,5.10
2023-04-02T00:44:42.762Z,5.20
2023-04-02T00:47:18.840Z,5.20
2023-04-02T00:49:48.242Z,5.20
2023-04-02T00:52:19.655Z,5.10
2023-04-02T00:54:51.732Z,5.10
2023-04-02T00:57:25.469Z,5.10
2023-04-02T00:59:59.577Z,5.00
2023-04-02T01:02:33.893Z,5.10
2023-04-02T01:05:03.997Z,5.00
2023-04-02T01:07:52.725Z,5.00
2023-04-02T01:10:43.786Z,5.00
2023-04-02T01:13:24.631Z,5.00
2023-04-02T01:16:01.424Z,5.00
2023-04-02T01:18:39.800Z,5.00
2023-04-02T01:21:33.922Z,5.00
2023-04-02T01:24:05.520Z,5.10
2023-04-02T01:26:48.035Z,5.00
2023-04-02T01:29:20.811Z,4.90
2023-04-02T01:31:52.302Z,5.00
2023-04-02T01:34:26.006Z,4.90
2023-04-02T01:37:10.272Z,4.90
2023-04-02T01:40:01.356Z,4.80
2023-04-02T01:42:34.526Z,4.90
2023-04-02T01:45:08.926Z,4.80
2023-04-02T01:47:38.738Z,4.80
2023-04-02T01:50:22.756Z,4.90
2023-04-02T01:52:53.487Z,4.90
2023-04-02T01:55:31.267Z,4.80
2023-04-02T01:58:01.356Z,4.80
2023-04-02T02:00:33.306Z,4.80
2023-04-02T02:03:03.157Z,4.80
2023-04-02T02:05:32.317Z,4.80
2023-04-02T02:08:02.166Z,4.90
2023-04-02T02:10:36.010Z,5.00
2023-04-02T02:13:04.988Z,5.20
2023-04-02T02:15:37.145Z,5.20
2023-04-02T02:18:07.329Z,5.10
2023-04-02T02:20:36.314Z,5.10
2023-04-02T02:23:05.972Z,5.10
2023-04-02T02:25:36.462Z,5.10
2023-04-02T02:28:09.217Z,5.00
2023-04-02T02:30:43.817Z,5.00
2023-04-02T02:33:18.656Z,4.90
2023-04-02T02:35:53.724Z,5.00
2023-04-02T02:38:40.189Z,5.00
2023-04-02T02:41:26.292Z,5.10
2023-04-02T02:44:04.018Z,5.10
2023-04-02T02:46:34.905Z,5.10
2023-04-02T02:49:06.071Z,5.10
2023-04-02T02:51:45.192Z,5.20
2023-04-02T02:54:19.880Z,5.10
2023-04-02T02:56:54.036Z,5.10
2023-04-02T02:59:23.800Z,5.10
2023-04-02T03:01:54.485Z,5.10
2023-04-02T03:04:24.278Z,5.10
2023-04-02T03:06:58.612Z,5.10
2023-04-02T03:09:37.897Z,5.10
2023-04-02T03:12:21.629Z,5.00
2023-04-02T03:14:56.613Z,4.90
2023-04-02T03:17:32.101Z,5.00
2023-04-02T03:20:06.620Z,5.00
2023-04-02T03:22:40.052Z,5.10
2023-04-02T03:25:25.871Z,5.10
2023-04-02T03:28:00.641Z,5.10
2023-04-02T03:30:34.586Z,5.20
2023-04-02T03:33:07.836Z,5.20
2023-04-02T03:35:40.401Z,5.10
2023-04-02T03:38:15.547Z,5.20
2023-04-02T03:40:59.491Z,5.20
2023-04-02T03:43:32.784Z,5.30
2023-04-02T03:46:11.880Z,5.20
2023-04-02T03:48:47.393Z,5.30
2023-04-02T03:51:21.242Z,5.30
2023-04-02T03:53:50.665Z,5.20
2023-04-02T03:56:26.756Z,5.20
2023-04-02T03:59:04.263Z,5.10
2023-04-02T04:01:38.451Z,5.20
2023-04-02T04:04:17.411Z,5.20
2023-04-02T04:06:48.327Z,5.20
2023-04-02T04:09:21.371Z,5.20
2023-04-02T04:11:52.698Z,5.10
2023-04-02T04:14:28.415Z,5.10
2023-04-02T04:17:05.402Z,5.00
2023-04-02T04:19:45.552Z,5.10
2023-04-02T04:22:19.150Z,5.10
2023-04-02T04:24:51.220Z,5.10
2023-04-02T04:27:34.642Z,5.20
2023-04-02T04:30:10.376Z,5.30
2023-04-02T04:32:50.440Z,5.30
2023-04-02T04:35:29.706Z,5.30
2023-04-02T04:38:03.841Z,5.30
2023-04-02T04:40:35.515Z,5.40
2023-04-02T04:43:08.246Z,5.30
2023-04-02T04:45:42.900Z,5.20
2023-04-02T04:48:17.224Z,5.10
2023-04-02T04:50:52.392Z,5.20
2023-04-02T04:53:23.282Z,5.20
2023-04-02T04:55:59.700Z,5.20
2023-04-02T04:58:47.131Z,5.30
2023-04-02T05:01:20.116Z,5.40
2023-04-02T05:03:52.919Z,5.40
2023-04-02T05:06:35.471Z,5.30
2023-04-02T05:09:13.098Z,5.30
2023-04-02T05:11:45.899Z,5.30
2023-04-02T05:14:23.274Z,5.30
2023-04-02T05:16:58.792Z,5.30
2023-04-02T05:19:35.682Z,5.40
2023-04-02T05:22:13.972Z,5.30
2023-04-02T05:24:52.242Z,5.40
2023-04-02T05:27:29.748Z,5.40
2023-04-02T05:30:04.824Z,5.30
2023-04-02T05:32:37.341Z,5.30
2023-04-02T05:35:06.818Z,5.30
2023-04-02T05:37:41.333Z,5.30
2023-04-02T05:40:17.117Z,5.30
2023-04-02T05:42:50.325Z,5.30
2023-04-02T05:45:28.389Z,5.40
2023-04-02T05:48:02.989Z,5.50
2023-04-02T05:50:43.052Z,5.50
2023-04-02T05:53:22.504Z,5.40
2023-04-02T05:55:57.732Z,5.50
2023-04-02T05:58:36.752Z,5.50
2023-04-02T06:01:36.415Z,5.60
2023-04-02T06:04:19.902Z,5.70
2023-04-02T06:06:53.738Z,5.60
2023-04-02T06:09:32.704Z,5.50
2023-04-02T06:12:10.520Z,5.50
2023-04-02T06:14:39.188Z,5.50
2023-04-02T06:17:07.703Z,5.50
2023-04-02T06:19:39.535Z,5.50
2023-04-02T06:22:18.568Z,5.50
2023-04-02T06:24:54.104Z,5.70
2023-04-02T06:27:26.495Z,5.90
2023-04-02T06:30:01.015Z,5.90
2023-04-02T06:32:31.846Z,6.00
2023-04-02T06:35:00.456Z,6.00
2023-04-02T06:37:33.637Z,6.10
2023-04-02T06:40:35.730Z,6.20
2023-04-02T06:43:19.523Z,6.80
2023-04-02T06:46:19.048Z,7.20
2023-04-02T06:49:05.677Z,7.20
2023-04-02T06:51:37.924Z,7.20
2023-04-02T06:54:07.540Z,7.40
2023-04-02T06:56:43.587Z,7.20
2023-04-02T06:59:30.577Z,7.00
2023-04-02T07:02:03.800Z,6.80
2023-04-02T07:04:33.050Z,6.80
2023-04-02T07:07:01.371Z,6.70
2023-04-02T07:09:33.154Z,6.70
2023-04-02T07:12:12.821Z,7.00
2023-04-02T07:14:43.108Z,7.00
2023-04-02T07:17:17.785Z,7.00
2023-04-02T07:19:49.759Z,6.90
2023-04-02T07:22:20.865Z,6.80
2023-04-02T07:24:56.306Z,6.90
2023-04-02T07:27:26.396Z,6.80
2023-04-02T07:29:54.705Z,6.70
2023-04-02T07:32:22.947Z,6.70
2023-04-02T07:34:51.689Z,6.80
2023-04-02T07:37:20.014Z,6.90
2023-04-02T07:39:48.219Z,6.90
2023-04-02T07:42:16.391Z,6.70
2023-04-02T07:44:46.026Z,6.60
2023-04-02T07:47:14.198Z,6.50
2023-04-02T07:49:42.424Z,6.50
2023-04-02T07:52:10.722Z,6.60
2023-04-02T07:54:39.919Z,6.60
2023-04-02T07:57:09.818Z,6.60
2023-04-02T07:59:41.441Z,6.60
2023-04-02T08:02:20.919Z,6.70
2023-04-02T08:04:49.680Z,6.80
2023-04-02T08:07:18.956Z,7.20
2023-04-02T08:09:47.265Z,7.30
2023-04-02T08:12:16.255Z,7.30
2023-04-02T08:14:44.597Z,7.30
2023-04-02T08:17:12.991Z,7.20
2023-04-02T08:19:54.196Z,7.30
2023-04-02T08:22:23.634Z,7.10
2023-04-02T08:24:52.183Z,7.00
2023-04-02T08:27:20.465Z,6.90
2023-04-02T08:29:48.816Z,6.90
2023-04-02T08:32:17.486Z,6.90
2023-04-02T08:34:47.782Z,7.00
2023-04-02T08:37:16.662Z,6.90
2023-04-02T08:39:45.322Z,7.00
2023-04-02T08:42:23.922Z,7.10
2023-04-02T08:45:21.292Z,7.10
2023-04-02T08:47:56.148Z,6.80
2023-04-02T08:50:31.513Z,6.80
2023-04-02T08:53:00.539Z,6.90
2023-04-02T08:55:36.679Z,6.80
2023-04-02T08:58:14.495Z,6.90
2023-04-02T09:00:45.604Z,7.40
2023-04-02T09:03:19.538Z,7.70
2023-04-02T09:05:51.985Z,8.00
2023-04-02T09:08:24.618Z,8.10
2023-04-02T09:11:00.582Z,8.10
2023-04-02T09:13:32.000Z,8.10
2023-04-02T09:16:04.828Z,8.50
2023-04-02T09:18:34.225Z,8.70
2023-04-02T09:21:17.375Z,8.80
2023-04-02T09:23:45.656Z,9.10
2023-04-02T09:26:23.779Z,9.40
2023-04-02T09:28:53.871Z,9.30
2023-04-02T09:31:26.487Z,9.00
2023-04-02T09:33:55.123Z,9.10
2023-04-02T09:36:46.006Z,9.30
2023-04-02T09:39:19.800Z,9.40
2023-04-02T09:42:02.452Z,9.20
2023-04-02T09:44:33.877Z,9.10
2023-04-02T09:47:04.751Z,9.00
2023-04-02T09:49:35.422Z,9.10
2023-04-02T09:52:29.653Z,9.00
2023-04-02T09:55:21.735Z,8.90
2023-04-02T09:57:52.003Z,9.00
2023-04-02T10:03:06.918Z,9.10
2023-04-02T10:05:41.237Z,9.30
2023-04-02T10:08:20.217Z,9.50
2023-04-02T10:10:51.663Z,9.50
2023-04-02T10:13:26.334Z,9.30
2023-04-02T10:16:00.024Z,9.40
2023-04-02T10:18:39.782Z,9.40
2023-04-02T10:21:11.448Z,9.40
2023-04-02T10:23:41.778Z,9.20
2023-04-02T10:26:37.542Z,9.30
2023-04-02T10:29:28.234Z,9.10
2023-04-02T10:32:02.291Z,8.90
2023-04-02T10:34:39.428Z,9.00
2023-04-02T10:37:32.663Z,9.10
2023-04-02T10:40:09.883Z,9.30
2023-04-02T10:42:46.591Z,9.60
2023-04-02T10:45:23.329Z,9.40
2023-04-02T10:47:57.550Z,9.20
2023-04-02T10:50:37.543Z,9.30
2023-04-02T10:53:12.711Z,9.50
2023-04-02T10:55:45.831Z,9.40
2023-04-02T10:58:23.758Z,9.60
2023-04-02T11:00:55.093Z,9.80
2023-04-02T11:03:32.684Z,9.80
2023-04-02T11:06:06.171Z,9.70
2023-04-02T11:08:42.446Z,9.50
2023-04-02T11:11:16.122Z,9.60
2023-04-02T11:13:54.296Z,9.40
2023-04-02T11:16:23.367Z,9.40
2023-04-02T11:19:22.682Z,9.40
2023-04-02T11:21:59.438Z,9.40
2023-04-02T11:24:43.640Z,9.30
2023-04-02T11:27:25.633Z,9.50
2023-04-02T11:29:59.651Z,9.60
2023-04-02T11:32:39.782Z,9.40
2023-04-02T11:35:28.497Z,9.20
2023-04-02T11:37:58.200Z,9.20
2023-04-02T11:40:49.846Z,9.50
2023-04-02T11:44:00.481Z,9.70
2023-04-02T11:46:52.844Z,9.70
2023-04-02T11:49:41.380Z,9.70
2023-04-02T11:52:28.705Z,9.80
2023-04-02T11:55:03.015Z,9.70
2023-04-02T11:57:48.025Z,9.70
2023-04-02T12:00:32.106Z,9.70
2023-04-02T12:03:25.587Z,9.70
2023-04-02T12:05:58.855Z,9.70
2023-04-02T12:08:50.717Z,9.70
2023-04-02T12:11:33.401Z,9.90
2023-04-02T12:14:02.854Z,9.90
2023-04-02T12:16:35.541Z,9.80
2023-04-02T12:19:09.322Z,9.80
2023-04-02T12:21:40.304Z,9.90
2023-04-02T12:24:21.282Z,10.10
2023-04-02T12:26:49.766Z,10.10
2023-04-02T12:29:24.865Z,10.20
2023-04-02T12:31:55.749Z,10.20
2023-04-02T12:34:26.147Z,10.30
2023-04-02T12:37:02.525Z,10.30
2023-04-02T12:39:31.798Z,10.10
2023-04-02T12:42:00.436Z,9.90
2023-04-02T12:44:31.032Z,10.00
2023-04-02T12:47:00.901Z,10.00
2023-04-02T12:49:38.314Z,10.20
2023-04-02T12:52:08.738Z,10.20
2023-04-02T12:54:39.349Z,10.30
2023-04-02T12:57:40.632Z,10.30
2023-04-02T13:00:34.372Z,10.30
2023-04-02T13:03:20.737Z,10.10
2023-04-02T13:05:54.133Z,10.30
2023-04-02T13:08:27.223Z,10.30
2023-04-02T13:10:58.776Z,10.30
2023-04-02T13:13:31.245Z,10.40
2023-04-02T13:19:31.536Z,10.50
2023-04-02T13:22:03.525Z,10.40
2023-04-02T13:24:33.815Z,10.50
2023-04-02T13:27:04.599Z,10.40
2023-04-02T13:29:35.404Z,10.30
2023-04-02T13:32:05.758Z,10.30
2023-04-02T13:34:35.700Z,10.40
2023-04-02T13:37:03.989Z,10.40
2023-04-02T13:39:41.937Z,10.40
2023-04-02T13:42:15.577Z,10.30
2023-04-02T13:44:43.887Z,10.30
2023-04-02T13:47:16.188Z,10.20
2023-04-02T13:49:46.007Z,10.30
2023-04-02T13:52:16.692Z,10.20
2023-04-02T13:54:48.858Z,10.00
2023-04-02T13:57:18.033Z,10.10
2023-04-02T13:59:46.317Z,10.10
2023-04-02T14:02:18.156Z,10.20
2023-04-02T14:04:51.164Z,10.20
2023-04-02T14:07:34.342Z,10.00
2023-04-02T14:10:16.979Z,9.90
2023-04-02T14:12:58.288Z,9.90
2023-04-02T14:15:50.019Z,10.00
2023-04-02T14:18:36.690Z,9.90
2023-04-02T14:21:15.806Z,9.90
2023-04-02T14:23:57.593Z,10.00
2023-04-02T14:26:31.855Z,10.10
2023-04-02T14:29:09.952Z,9.90
2023-04-02T14:31:45.534Z,9.90
2023-04-02T14:34:23.258Z,9.70
2023-04-02T14:37:02.001Z,9.60
2023-04-02T14:39:40.238Z,9.70
2023-04-02T14:42:14.136Z,9.80
2023-04-02T14:44:48.805Z,9.90
2023-04-02T14:47:22.342Z,9.70
2023-04-02T14:49:55.713Z,9.60
2023-04-02T14:52:27.949Z,9.60
2023-04-02T14:55:00.466Z,9.60
2023-04-02T14:57:32.522Z,9.50
2023-04-02T15:00:06.061Z,9.50
2023-04-02T15:02:42.816Z,9.40
2023-04-02T15:05:19.555Z,9.50
2023-04-02T15:07:53.508Z,9.30
2023-04-02T15:10:27.622Z,9.20
2023-04-02T15:12:57.833Z,9.30
2023-04-02T15:15:40.381Z,9.40
2023-04-02T15:18:14.309Z,9.50
2023-04-02T15:20:53.576Z,9.40
2023-04-02T15:23:39.508Z,9.10
2023-04-02T15:26:19.550Z,9.10
2023-04-02T15:28:52.817Z,9.10
2023-04-02T15:31:24.462Z,9.20
2023-04-02T15:33:57.621Z,9.20
2023-04-02T15:36:53.889Z,9.00
2023-04-02T15:39:42.932Z,8.80
2023-04-02T15:42:24.934Z,8.60
2023-04-02T15:45:24.912Z,8.60
2023-04-02T15:48:12.973Z,8.70
2023-04-02T15:51:14.240Z,8.70
2023-04-02T15:53:53.297Z,8.60
2023-04-02T15:56:38.579Z,8.50
2023-04-02T15:59:41.797Z,8.30
2023-04-02T16:02:30.197Z,8.30
2023-04-02T16:05:04.930Z,8.30
2023-04-02T16:08:09.207Z,8.30
2023-04-02T16:10:42.591Z,8.30
2023-04-02T16:13:19.458Z,8.20
2023-04-02T16:15:53.380Z,8.30
2023-04-02T16:18:38.033Z,8.50
2023-04-02T16:21:06.794Z,8.60
2023-04-02T16:23:36.921Z,8.30
2023-04-02T16:26:17.732Z,8.40
2023-04-02T16:28:59.449Z,8.40
2023-04-02T16:31:32.662Z,8.30
2023-04-02T16:34:07.719Z,8.40
2023-04-02T16:36:52.157Z,8.30
2023-04-02T16:39:32.876Z,8.30
2023-04-02T16:42:10.513Z,8.10
2023-04-02T16:44:51.754Z,8.00
2023-04-02T16:47:30.622Z,7.80
2023-04-02T16:50:04.757Z,7.70
2023-04-02T16:52:44.679Z,7.70
2023-04-02T16:55:26.854Z,7.70
2023-04-02T16:58:05.979Z,7.70
2023-04-02T17:00:43.023Z,7.60
2023-04-02T17:03:33.279Z,7.50
2023-04-02T17:06:07.478Z,7.50
2023-04-02T17:08:44.156Z,7.50
2023-04-02T17:11:22.567Z,7.40
2023-04-02T17:14:05.816Z,7.40
2023-04-02T17:16:43.039Z,7.20
2023-04-02T17:19:14.499Z,7.30
2023-04-02T17:21:45.825Z,7.30
2023-04-02T17:24:23.059Z,7.30
2023-04-02T17:26:56.973Z,7.30
2023-04-02T17:29:30.728Z,7.30
2023-04-02T17:32:03.562Z,7.20
2023-04-02T17:34:32.547Z,7.10
2023-04-02T17:37:11.998Z,7.00
2023-04-02T17:39:47.127Z,6.90
2023-04-02T17:42:23.393Z,6.80
2023-04-02T17:45:02.629Z,6.80
2023-04-02T17:47:39.875Z,6.80
2023-04-02T17:50:37.772Z,6.70
2023-04-02T17:53:19.153Z,6.70
2023-04-02T17:55:56.155Z,6.60
2023-04-02T17:58:46.881Z,6.60
2023-04-02T18:01:20.080Z,6.60
2023-04-02T18:03:55.076Z,6.60
2023-04-02T18:06:28.757Z,6.60
2023-04-02T18:09:19.230Z,6.60
2023-04-02T18:11:59.830Z,6.60
2023-04-02T18:14:52.026Z,6.50
2023-04-02T18:17:28.606Z,6.40
2023-04-02T18:20:05.305Z,6.40
2023-04-02T18:22:39.394Z,6.40
2023-04-02T18:25:28.470Z,6.30
2023-04-02T18:28:16.292Z,6.20
2023-04-02T18:30:52.034Z,6.20
2023-04-02T18:33:47.046Z,6.10
2023-04-02T18:36:23.633Z,6.20
2023-04-02T18:38:58.871Z,6.20
2023-04-02T18:41:44.914Z,6.10
2023-04-02T18:44:31.290Z,6.00
2023-04-02T18:47:09.580Z,6.00
2023-04-02T18:49:42.452Z,5.90
2023-04-02T18:52:14.589Z,5.90
2023-04-02T18:54:47.211Z,5.90
2023-04-02T18:57:19.113Z,5.80
2023-04-02T18:59:52.909Z,5.70
2023-04-02T19:02:35.153Z,5.60
2023-04-02T19:05:06.528Z,5.50
2023-04-02T19:07:44.578Z,5.50
2023-04-02T19:10:30.140Z,5.50
2023-04-02T19:12:59.439Z,5.40
2023-04-02T19:15:39.114Z,5.40
2023-04-02T19:18:19.731Z,5.40
2023-04-02T19:20:57.441Z,5.50
2023-04-02T19:23:44.532Z,5.40
2023-04-02T19:26:17.143Z,5.30
2023-04-02T19:28:52.839Z,5.20
2023-04-02T19:31:35.606Z,5.20
2023-04-02T19:34:16.386Z,5.20
2023-04-02T19:36:49.453Z,5.20
2023-04-02T19:39:53.567Z,5.20
2023-04-02T19:42:43.275Z,5.10
2023-04-02T19:45:29.186Z,5.00
2023-04-02T19:47:59.682Z,4.90
2023-04-02T19:50:30.072Z,4.80
2023-04-02T19:52:58.312Z,4.80
2023-04-02T19:55:28.397Z,4.70
2023-04-02T19:58:04.518Z,4.70
2023-04-02T20:00:45.556Z,4.80
2023-04-02T20:03:14.201Z,4.70
2023-04-02T20:05:46.292Z,4.60
2023-04-02T20:08:15.089Z,4.60
2023-04-02T20:10:45.399Z,4.60
2023-04-02T20:13:14.053Z,4.60
2023-04-02T20:15:42.421Z,4.50
2023-04-02T20:18:11.125Z,4.50
2023-04-02T20:20:40.633Z,4.50
2023-04-02T20:23:08.960Z,4.50
2023-04-02T20:25:37.330Z,4.40
2023-04-02T20:28:07.538Z,4.40
2023-04-02T20:30:36.331Z,4.40
2023-04-02T20:33:04.983Z,4.40
2023-04-02T20:35:34.590Z,4.40
2023-04-02T20:38:06.512Z,4.40
2023-04-02T20:40:35.248Z,4.30
2023-04-02T20:43:04.683Z,4.30
2023-04-02T20:45:34.424Z,4.20
2023-04-02T20:48:09.740Z,4.20
2023-04-02T20:50:38.890Z,4.20
2023-04-02T20:53:07.785Z,4.30
2023-04-02T20:55:36.033Z,4.20
2023-04-02T20:58:04.902Z,4.20
2023-04-02T21:00:34.742Z,4.20
2023-04-02T21:03:03.452Z,4.20
2023-04-02T21:05:32.213Z,4.20
2023-04-02T21:08:00.474Z,4.20
2023-04-02T21:10:28.839Z,4.10
2023-04-02T21:12:57.422Z,4.20
2023-04-02T21:15:25.815Z,4.20
2023-04-02T21:17:55.933Z,4.20
2023-04-02T21:20:26.147Z,4.20
2023-04-02T21:22:54.639Z,4.10
2023-04-02T21:25:22.818Z,4.20
2023-04-02T21:27:53.110Z,4.20
2023-04-02T21:30:21.476Z,4.10
2023-04-02T21:32:50.052Z,4.00
2023-04-02T21:35:20.314Z,4.00
2023-04-02T21:37:51.964Z,4.00
2023-04-02T21:40:20.804Z,4.00
2023-04-02T21:42:50.665Z,4.00
2023-04-02T21:45:19.321Z,4.00
2023-04-02T21:47:47.521Z,4.00
2023-04-02T21:50:16.051Z,3.90
2023-04-02T21:52:45.933Z,3.90
2023-04-02T21:55:14.174Z,3.90
2023-04-02T21:57:42.663Z,3.90
2023-04-02T22:00:13.697Z,3.90
2023-04-02T22:02:42.069Z,3.80
2023-04-02T22:05:10.678Z,3.80
2023-04-02T22:07:39.237Z,3.80
2023-04-02T22:10:10.806Z,3.70
2023-04-02T22:12:39.336Z,3.60
2023-04-02T22:15:08.313Z,3.60
2023-04-02T22:17:36.833Z,3.60
2023-04-02T22:20:05.600Z,3.70
2023-04-02T22:22:33.984Z,3.70
2023-04-02T22:25:03.182Z,3.60
2023-04-02T22:27:34.165Z,3.60
2023-04-02T22:30:02.524Z,3.60
2023-04-02T22:32:30.880Z,3.50
2023-04-02T22:34:59.220Z,3.40
2023-04-02T22:37:27.628Z,3.40
2023-04-02T22:39:56.495Z,3.40
2023-04-02T22:42:26.641Z,3.40
2023-04-02T22:44:56.949Z,3.30
2023-04-02T22:47:25.291Z,3.20
2023-04-02T22:49:53.736Z,3.20
2023-04-02T22:52:21.970Z,3.10
2023-04-02T22:54:50.475Z,3.20
2023-04-02T22:57:18.993Z,3.20
2023-04-02T22:59:49.801Z,3.20
2023-04-02T23:02:20.356Z,3.20
2023-04-02T23:04:48.932Z,3.10
2023-04-02T23:07:17.672Z,3.10
2023-04-02T23:09:46.264Z,3.20
2023-04-02T23:12:14.458Z,3.10
2023-04-02T23:14:43.366Z,3.10
2023-04-02T23:17:11.711Z,3.00
2023-04-02T23:19:41.838Z,3.10
2023-04-02T23:22:10.535Z,3.00
2023-04-02T23:24:39.012Z,3.00
2023-04-02T23:27:07.931Z,3.00
2023-04-02T23:29:36.165Z,3.10
2023-04-02T23:32:04.462Z,3.10
2023-04-02T23:34:32.628Z,3.10
2023-04-02T23:37:02.290Z,3.10
2023-04-02T23:39:30.810Z,3.10
2023-04-02T23:42:00.663Z,3.00
2023-04-02T23:44:28.897Z,3.00
2023-04-02T23:46:57.279Z,3.10
2023-04-02T23:49:27.109Z,3.10
2023-04-02T23:51:55.527Z,3.00
2023-04-02T23:54:25.499Z,3.00
2023-04-02T23:56:53.781Z,3.10
2023-04-02T23:59:22.038Z,3.10
